Time;durP1;ratioP1;P1;durP2;ratioP2;P2;SDS_P1;SDS_P2;PMS_P1;PMS_P2;Temp;Humidity;BMP_temperature;BMP_pressure;BME280_temperature;BME280_humidity;BME280_pressure;Samples;Min_cycle;Max_cycle;Signal;HPM_P1;HPM_P2
2022/04/13 00:00:38;;;;;;;4.20;3.80;;;10.20;99.90;;;;;;5085865;28;20380;-82
2022/04/13 00:03:23;;;;;;;3.20;3.00;;;10.10;99.90;;;;;;5100701;28;20995;-82
2022/04/13 00:06:07;;;;;;;6.00;2.93;;;10.00;99.90;;;;;;5119442;28;20399;-78
2022/04/13 00:08:55;;;;;;;3.47;3.13;;;9.80;99.90;;;;;;5120357;28;20380;-82
2022/04/13 00:11:39;;;;;;;4.13;3.53;;;9.80;99.90;;;;;;5119800;28;20458;-80
2022/04/13 00:14:24;;;;;;;5.50;3.30;;;9.70;99.90;;;;;;5119879;28;20404;-80
2022/04/13 00:17:09;;;;;;;3.40;3.03;;;9.50;99.90;;;;;;5104879;28;20383;-79
2022/04/13 00:19:54;;;;;;;3.60;3.30;;;9.40;99.90;;;;;;5120304;28;20380;-78
2022/04/13 00:22:39;;;;;;;5.33;3.47;;;9.50;99.90;;;;;;5119386;28;20436;-79
2022/04/13 00:25:23;;;;;;;3.97;3.53;;;9.40;99.90;;;;;;5119211;28;20411;-78
2022/04/13 00:28:10;;;;;;;3.60;3.30;;;9.50;99.90;;;;;;5117732;28;20713;-77
2022/04/13 00:30:54;;;;;;;2.80;2.33;;;9.50;99.90;;;;;;5104730;28;20380;-82
2022/04/13 00:33:40;;;;;;;3.07;2.77;;;9.40;99.90;;;;;;5099885;28;20391;-82
2022/04/13 00:36:25;;;;;;;4.33;3.13;;;9.40;99.90;;;;;;5099877;28;20388;-82
2022/04/13 00:39:10;;;;;;;2.70;2.50;;;9.40;99.90;;;;;;5099219;28;20757;-83
2022/04/13 00:41:59;;;;;;;4.60;2.93;;;9.60;99.90;;;;;;5099153;28;20486;-81
2022/04/13 00:44:44;;;;;;;3.70;2.63;;;9.50;99.90;;;;;;5100156;28;20495;-82
2022/04/13 00:47:28;;;;;;;5.70;2.73;;;9.50;99.90;;;;;;5070595;28;20384;-82
2022/04/13 00:50:13;;;;;;;5.50;4.70;;;9.50;99.90;;;;;;5099643;28;20434;-82
2022/04/13 00:52:59;;;;;;;4.00;3.60;;;9.40;99.90;;;;;;5082910;28;20455;-81
2022/04/13 00:55:46;;;;;;;4.17;2.57;;;9.30;99.90;;;;;;5075133;28;20867;-82
2022/04/13 00:58:33;;;;;;;4.40;3.17;;;9.10;99.90;;;;;;5075692;28;20397;-81
2022/04/13 01:01:18;;;;;;;4.80;2.90;;;9.20;99.90;;;;;;5061566;28;20421;-81
2022/04/13 01:04:04;;;;;;;3.07;2.87;;;9.40;99.90;;;;;;5076078;28;20906;-80
2022/04/13 01:06:51;;;;;;;4.10;3.60;;;9.40;99.90;;;;;;5062698;28;20394;-81
2022/04/13 01:09:36;;;;;;;3.93;2.87;;;9.30;99.90;;;;;;5076894;28;20438;-82
2022/04/13 01:12:21;;;;;;;4.50;2.33;;;9.20;99.90;;;;;;5065676;28;20515;-82
2022/04/13 01:15:06;;;;;;;2.63;2.43;;;9.20;99.90;;;;;;5056497;28;20489;-81
2022/04/13 01:17:53;;;;;;;4.53;3.57;;;9.20;99.90;;;;;;5055370;28;20417;-81
2022/04/13 01:20:42;;;;;;;4.27;2.77;;;9.20;99.90;;;;;;5056023;28;20444;-82
2022/04/13 01:23:27;;;;;;;5.10;3.17;;;9.10;99.90;;;;;;5063869;28;20460;-82
2022/04/13 01:26:12;;;;;;;4.10;3.20;;;9.30;99.90;;;;;;5077092;28;20409;-82
2022/04/13 01:28:56;;;;;;;4.23;3.57;;;9.10;99.90;;;;;;5077605;28;20412;-82
2022/04/13 01:31:41;;;;;;;5.47;2.90;;;9.40;99.90;;;;;;5076971;28;20425;-81
2022/04/13 01:34:27;;;;;;;4.40;3.87;;;9.60;99.90;;;;;;5077097;28;20405;-82
2022/04/13 01:37:12;;;;;;;5.33;3.90;;;9.70;99.90;;;;;;5063113;28;20381;-81
2022/04/13 01:39:57;;;;;;;3.97;3.57;;;9.60;99.90;;;;;;5068050;28;20384;-82
2022/04/13 01:42:44;;;;;;;3.30;3.00;;;9.60;99.90;;;;;;5098327;28;20494;-79
2022/04/13 01:45:29;;;;;;;9.23;4.40;;;9.60;99.90;;;;;;5098300;28;20389;-81
2022/04/13 01:48:16;;;;;;;4.37;3.70;;;9.70;99.90;;;;;;5097627;28;20385;-83
2022/04/13 01:51:01;;;;;;;8.07;4.37;;;9.80;99.90;;;;;;5098215;28;20393;-81
2022/04/13 01:53:47;;;;;;;9.23;3.97;;;9.80;99.90;;;;;;5084461;28;20741;-82
2022/04/13 01:56:32;;;;;;;4.30;3.70;;;9.80;99.90;;;;;;5078087;28;21004;-83
2022/04/13 01:59:16;;;;;;;7.43;3.60;;;9.80;99.90;;;;;;5078103;28;20424;-83
2022/04/13 02:02:04;;;;;;;6.70;4.37;;;9.90;99.90;;;;;;5077539;28;20440;-83
2022/04/13 02:04:49;;;;;;;4.10;3.70;;;10.00;99.90;;;;;;5077414;28;20397;-82
2022/04/13 02:07:34;;;;;;;5.40;4.40;;;10.10;99.90;;;;;;5077407;28;20385;-82
2022/04/13 02:10:20;;;;;;;5.50;4.00;;;10.10;99.90;;;;;;5077314;28;20463;-82
2022/04/13 02:13:05;;;;;;;6.03;3.47;;;10.20;99.90;;;;;;5076636;28;20448;-81
2022/04/13 02:15:50;;;;;;;4.10;3.70;;;10.00;99.90;;;;;;5077934;28;20743;-82
2022/04/13 02:18:34;;;;;;;4.07;3.57;;;10.00;99.90;;;;;;5076885;28;20468;-82
2022/04/13 02:21:19;;;;;;;8.23;4.23;;;10.00;99.90;;;;;;5076573;28;20413;-81
2022/04/13 02:24:04;;;;;;;4.90;3.50;;;10.00;99.90;;;;;;5062451;28;20393;-82
2022/04/13 02:26:49;;;;;;;3.37;3.10;;;10.10;99.90;;;;;;5076731;28;20400;-82
2022/04/13 02:29:34;;;;;;;4.57;3.40;;;10.10;99.90;;;;;;5077558;28;20385;-82
2022/04/13 02:32:18;;;;;;;4.00;3.70;;;10.20;99.90;;;;;;5081397;28;20420;-81
2022/04/13 02:35:03;;;;;;;5.10;4.00;;;10.20;99.90;;;;;;5052472;28;20837;-82
2022/04/13 02:37:47;;;;;;;5.97;4.60;;;10.20;99.90;;;;;;5081310;28;20380;-82
2022/04/13 02:40:32;;;;;;;3.07;2.80;;;10.10;99.90;;;;;;5080745;28;20385;-81
2022/04/13 02:43:17;;;;;;;8.27;3.90;;;10.10;99.90;;;;;;5081159;28;20599;-82
2022/04/13 02:46:01;;;;;;;4.23;3.70;;;10.10;99.90;;;;;;5082342;28;20439;-81
2022/04/13 02:48:45;;;;;;;6.77;4.37;;;10.10;99.90;;;;;;5067591;28;20420;-81
2022/04/13 02:51:30;;;;;;;4.33;3.30;;;10.10;99.90;;;;;;5066497;28;20416;-82
2022/04/13 02:54:16;;;;;;;11.67;4.43;;;10.10;99.90;;;;;;5080837;28;20392;-81
2022/04/13 02:57:00;;;;;;;4.25;3.85;;;10.10;99.90;;;;;;5079697;28;20492;-81
2022/04/13 02:59:46;;;;;;;5.67;4.10;;;10.00;99.90;;;;;;5080436;28;20209;-81
2022/04/13 03:02:30;;;;;;;6.37;4.20;;;10.00;99.90;;;;;;5080577;28;20440;-81
2022/04/13 03:05:15;;;;;;;5.03;3.90;;;10.00;99.90;;;;;;5080451;28;20781;-82
2022/04/13 03:08:00;;;;;;;3.30;3.10;;;10.00;99.90;;;;;;5080130;28;20897;-82
2022/04/13 03:10:44;;;;;;;10.80;4.13;;;10.00;99.90;;;;;;5079521;28;21020;-82
2022/04/13 03:13:29;;;;;;;5.00;4.17;;;10.00;99.90;;;;;;5064813;28;20548;-81
2022/04/13 03:16:13;;;;;;;5.13;4.30;;;9.80;99.90;;;;;;5080212;28;20435;-82
2022/04/13 03:18:58;;;;;;;4.67;4.17;;;9.80;99.90;;;;;;5064616;28;20444;-80
2022/04/13 03:21:43;;;;;;;4.97;4.20;;;9.80;99.90;;;;;;5080321;28;20424;-81
2022/04/13 03:24:27;;;;;;;8.87;4.23;;;9.80;99.90;;;;;;5079879;28;20907;-82
2022/04/13 03:27:12;;;;;;;4.40;4.00;;;9.80;99.90;;;;;;5080445;28;20389;-82
2022/04/13 03:29:57;;;;;;;8.80;4.10;;;9.80;99.90;;;;;;5080168;28;20413;-81
2022/04/13 03:32:41;;;;;;;5.47;3.90;;;9.80;99.90;;;;;;5080685;28;20393;-81
2022/04/13 03:35:26;;;;;;;5.13;3.43;;;9.80;99.90;;;;;;5080264;28;20477;-81
2022/04/13 03:38:10;;;;;;;7.53;4.17;;;9.80;99.90;;;;;;5080414;28;20381;-81
2022/04/13 03:40:55;;;;;;;4.67;3.77;;;9.70;99.90;;;;;;5079434;28;20392;-81
2022/04/13 03:43:39;;;;;;;4.77;3.80;;;9.70;99.90;;;;;;5080658;28;20436;-81
2022/04/13 03:46:23;;;;;;;6.00;4.33;;;9.70;99.90;;;;;;5051294;28;20425;-80
2022/04/13 03:49:08;;;;;;;5.30;4.00;;;9.70;99.90;;;;;;5058504;28;20450;-82
2022/04/13 03:51:52;;;;;;;4.77;3.97;;;9.70;99.90;;;;;;5059458;28;20470;-82
2022/04/13 03:54:37;;;;;;;3.33;3.03;;;9.50;99.90;;;;;;5044015;28;20983;-81
2022/04/13 03:57:25;;;;;;;3.80;3.40;;;9.50;99.90;;;;;;5059598;28;20385;-81
2022/04/13 04:00:10;;;;;;;7.17;4.10;;;9.40;99.90;;;;;;5023818;28;20410;-81
2022/04/13 04:02:55;;;;;;;5.60;4.30;;;9.50;99.90;;;;;;5037100;28;20496;-81
2022/04/13 04:05:40;;;;;;;3.80;3.50;;;9.60;99.90;;;;;;5059873;28;20744;-81
2022/04/13 04:08:26;;;;;;;4.90;4.20;;;9.50;99.90;;;;;;5059930;28;20386;-81
2022/04/13 04:11:10;;;;;;;6.07;4.07;;;9.40;99.90;;;;;;5059247;28;20386;-81
2022/04/13 04:13:55;;;;;;;4.67;3.70;;;9.40;99.90;;;;;;5059602;28;20410;-81
2022/04/13 04:16:40;;;;;;;6.30;3.80;;;9.40;99.90;;;;;;5059581;28;20429;-82
2022/04/13 04:19:24;;;;;;;7.00;4.67;;;9.40;99.90;;;;;;5044934;28;20398;-81
2022/04/13 04:22:09;;;;;;;5.77;4.07;;;9.30;99.90;;;;;;5059832;28;20442;-81
2022/04/13 04:24:54;;;;;;;7.17;3.90;;;9.30;99.90;;;;;;5058867;28;20457;-81
2022/04/13 04:27:38;;;;;;;5.90;5.13;;;9.30;99.90;;;;;;5059106;28;20390;-82
2022/04/13 04:30:23;;;;;;;6.20;4.30;;;9.30;99.90;;;;;;5058417;28;20452;-81
2022/04/13 04:33:12;;;;;;;7.53;4.23;;;9.30;99.90;;;;;;5059071;28;20440;-81
2022/04/13 04:35:57;;;;;;;8.67;5.30;;;9.30;99.90;;;;;;5058472;28;20390;-81
2022/04/13 04:38:41;;;;;;;4.20;3.60;;;9.20;99.90;;;;;;5058664;28;20409;-82
2022/04/13 04:41:26;;;;;;;5.40;4.50;;;9.10;99.90;;;;;;5058969;28;20465;-81
2022/04/13 04:44:11;;;;;;;4.70;3.70;;;9.10;99.90;;;;;;5058946;28;20898;-81
2022/04/13 04:46:55;;;;;;;5.80;5.27;;;9.10;99.90;;;;;;5058694;28;20386;-82
2022/04/13 04:49:40;;;;;;;6.93;4.43;;;9.10;99.90;;;;;;5044229;28;20382;-82
2022/04/13 04:52:25;;;;;;;6.33;4.60;;;9.00;99.90;;;;;;5051504;28;20441;-81
2022/04/13 04:55:10;;;;;;;4.60;3.93;;;9.10;99.90;;;;;;5067333;28;20436;-81
2022/04/13 04:57:55;;;;;;;6.90;4.50;;;9.20;99.90;;;;;;5070436;28;20421;-81
2022/04/13 05:00:39;;;;;;;4.27;3.93;;;9.30;99.90;;;;;;5070605;28;20390;-82
2022/04/13 05:03:24;;;;;;;7.80;4.37;;;9.40;99.90;;;;;;5066313;28;20569;-81
2022/04/13 05:06:09;;;;;;;9.30;5.87;;;9.20;99.90;;;;;;5048035;28;20377;-81
2022/04/13 05:08:55;;;;;;;10.63;6.60;;;9.10;99.90;;;;;;5058896;28;20480;-81
2022/04/13 05:11:39;;;;;;;5.27;4.73;;;9.10;99.90;;;;;;5064087;28;20556;-82
2022/04/13 05:14:25;;;;;;;5.77;5.07;;;9.10;99.90;;;;;;5078176;28;20885;-81
2022/04/13 05:17:09;;;;;;;8.43;4.60;;;9.00;99.90;;;;;;5062961;28;20532;-81
2022/04/13 05:19:54;;;;;;;7.53;3.80;;;9.10;99.90;;;;;;5078777;28;20389;-81
2022/04/13 05:22:39;;;;;;;6.93;4.63;;;9.20;99.90;;;;;;5077803;28;20437;-80
2022/04/13 05:25:23;;;;;;;5.47;4.27;;;9.20;99.90;;;;;;5077877;28;20436;-81
2022/04/13 05:28:08;;;;;;;5.67;4.70;;;9.20;99.90;;;;;;5077406;28;20441;-82
2022/04/13 05:30:52;;;;;;;5.90;4.57;;;9.30;99.90;;;;;;5076541;28;20432;-82
2022/04/13 05:33:36;;;;;;;7.33;4.30;;;9.40;99.90;;;;;;5077405;28;20516;-81
2022/04/13 05:36:21;;;;;;;9.67;4.70;;;9.40;99.90;;;;;;5077344;28;20753;-81
2022/04/13 05:39:07;;;;;;;8.60;4.10;;;9.50;99.90;;;;;;5077667;28;20389;-81
2022/04/13 05:41:51;;;;;;;8.10;4.00;;;9.50;99.90;;;;;;5077728;28;20400;-81
2022/04/13 05:44:36;;;;;;;5.67;5.17;;;9.50;99.90;;;;;;5078044;28;20396;-81
2022/04/13 05:47:20;;;;;;;7.07;4.53;;;9.60;99.90;;;;;;5077223;28;20774;-81
2022/04/13 05:50:05;;;;;;;4.97;4.27;;;9.70;99.90;;;;;;5062498;28;20420;-81
2022/04/13 05:52:50;;;;;;;6.33;3.97;;;9.80;99.90;;;;;;5077585;28;20483;-82
2022/04/13 05:55:34;;;;;;;7.77;4.30;;;9.90;99.90;;;;;;5057077;28;20429;-81
2022/04/13 05:58:18;;;;;;;6.03;4.20;;;9.90;99.90;;;;;;5060976;28;20805;-81
2022/04/13 06:01:03;;;;;;;6.93;4.30;;;10.00;99.90;;;;;;5042826;28;20450;-81
2022/04/13 06:03:48;;;;;;;8.30;4.10;;;10.00;99.90;;;;;;5054522;28;20537;-81
2022/04/13 06:06:32;;;;;;;4.93;4.50;;;9.90;99.90;;;;;;5077825;28;20569;-80
2022/04/13 06:09:16;;;;;;;6.70;5.30;;;9.90;99.90;;;;;;5075723;28;20431;-82
2022/04/13 06:12:01;;;;;;;9.33;4.80;;;10.10;99.90;;;;;;5076608;28;20813;-79
2022/04/13 06:14:45;;;;;;;6.03;4.77;;;10.30;99.90;;;;;;5077144;28;20405;-82
2022/04/13 06:17:29;;;;;;;10.50;4.90;;;10.30;99.90;;;;;;5061261;28;20417;-81
2022/04/13 06:20:14;;;;;;;8.83;5.80;;;10.40;99.90;;;;;;5060678;28;20444;-81
2022/04/13 06:22:59;;;;;;;8.50;5.87;;;10.40;99.90;;;;;;5062385;28;20502;-82
2022/04/13 06:26:03;;;;;;;14.67;5.63;;;10.40;99.90;;;;;;5081801;28;20428;-81
2022/04/13 06:28:47;;;;;;;8.90;5.20;;;10.40;99.90;;;;;;4998758;28;20532;-81
2022/04/13 06:31:32;;;;;;;6.20;4.57;;;10.50;99.90;;;;;;5011428;28;20458;-81
2022/04/13 06:34:18;;;;;;;5.20;4.43;;;10.60;99.90;;;;;;5001664;28;20400;-80
2022/04/13 06:37:03;;;;;;;20.83;4.87;;;10.60;99.90;;;;;;5013129;28;20544;-80
2022/04/13 06:39:47;;;;;;;11.63;5.30;;;10.70;99.90;;;;;;4999479;28;20423;-81
2022/04/13 06:42:37;;;;;;;14.80;4.77;;;10.60;99.90;;;;;;5013644;28;20464;-81
2022/04/13 06:45:22;;;;;;;8.23;5.67;;;10.60;99.90;;;;;;4975927;28;20439;-81
2022/04/13 06:48:08;;;;;;;6.13;5.10;;;10.60;99.90;;;;;;5013220;28;20419;-80
2022/04/13 06:50:55;;;;;;;7.83;5.13;;;10.70;99.90;;;;;;5003542;28;20478;-81
2022/04/13 06:53:40;;;;;;;4.37;3.97;;;10.80;99.90;;;;;;5018162;28;20487;-82
2022/04/13 06:56:24;;;;;;;6.83;5.03;;;10.80;99.90;;;;;;5003790;28;20596;-83
2022/04/13 06:59:09;;;;;;;5.63;4.90;;;10.90;99.90;;;;;;5030569;28;20441;-82
2022/04/13 07:01:53;;;;;;;13.83;4.73;;;11.00;99.90;;;;;;5069248;28;20478;-82
2022/04/13 07:04:38;;;;;;;7.47;5.33;;;11.10;99.90;;;;;;5066176;28;20529;-82
2022/04/13 07:07:23;;;;;;;6.23;5.63;;;11.20;99.90;;;;;;5048503;28;20984;-81
2022/04/13 07:10:07;;;;;;;9.67;4.80;;;11.20;99.90;;;;;;5050878;28;20436;-81
2022/04/13 07:12:52;;;;;;;6.30;5.50;;;11.40;99.90;;;;;;5068671;28;20468;-82
2022/04/13 07:15:37;;;;;;;10.80;5.27;;;11.40;99.90;;;;;;5075681;28;20437;-81
2022/04/13 07:18:21;;;;;;;7.43;5.60;;;11.50;99.90;;;;;;5061165;28;20471;-81
2022/04/13 07:21:06;;;;;;;8.03;5.20;;;11.60;99.90;;;;;;5063658;28;20460;-81
2022/04/13 07:23:57;;;;;;;6.30;5.00;;;11.80;99.90;;;;;;5079029;28;20455;-81
2022/04/13 07:26:42;;;;;;;6.30;5.13;;;12.00;99.90;;;;;;5077918;28;20436;-81
2022/04/13 07:29:26;;;;;;;8.13;5.27;;;12.20;99.90;;;;;;5068033;28;20426;-81
2022/04/13 07:32:14;;;;;;;9.90;5.13;;;12.40;99.90;;;;;;5083851;28;20966;-77
2022/04/13 07:34:59;;;;;;;15.00;5.03;;;12.40;99.90;;;;;;5065006;28;20496;-80
2022/04/13 07:37:43;;;;;;;8.50;5.53;;;12.60;99.90;;;;;;5078209;28;20512;-82
2022/04/13 07:40:28;;;;;;;7.00;5.50;;;12.60;99.90;;;;;;5055453;28;20437;-80
2022/04/13 07:43:14;;;;;;;12.00;6.30;;;12.60;99.90;;;;;;5072228;28;20461;-79
2022/04/13 07:45:58;;;;;;;6.07;4.50;;;12.60;99.90;;;;;;5061388;28;20444;-79
2022/04/13 07:48:43;;;;;;;5.90;5.30;;;12.60;99.90;;;;;;5079432;28;20429;-80
2022/04/13 07:51:27;;;;;;;13.07;6.07;;;12.60;99.90;;;;;;5075537;28;20428;-80
2022/04/13 07:54:12;;;;;;;9.60;5.27;;;12.90;99.90;;;;;;5084707;28;20432;-80
2022/04/13 07:56:56;;;;;;;9.23;5.70;;;13.10;99.90;;;;;;5087447;28;20574;-81
2022/04/13 07:59:41;;;;;;;8.73;6.43;;;13.40;99.90;;;;;;5090783;28;20428;-80
2022/04/13 08:02:27;;;;;;;8.97;5.80;;;13.30;99.90;;;;;;5072771;28;20459;-80
2022/04/13 08:05:14;;;;;;;7.07;6.37;;;13.30;99.90;;;;;;5057641;28;20728;-79
2022/04/13 08:07:58;;;;;;;5.23;4.60;;;13.60;99.90;;;;;;5084836;28;20481;-82
2022/04/13 08:10:45;;;;;;;7.73;6.40;;;13.70;99.90;;;;;;5071239;28;21207;-81
2022/04/13 08:13:29;;;;;;;7.77;5.03;;;13.80;99.90;;;;;;5057145;28;20478;-80
2022/04/13 08:16:14;;;;;;;7.13;6.43;;;14.00;99.90;;;;;;5076074;28;20436;-81
2022/04/13 08:18:59;;;;;;;6.63;5.93;;;14.10;99.90;;;;;;5061305;28;20401;-80
2022/04/13 08:21:44;;;;;;;11.20;6.97;;;14.10;99.90;;;;;;5063222;28;20517;-80
2022/04/13 08:24:29;;;;;;;22.83;6.07;;;14.40;99.90;;;;;;5071736;28;20452;-81
2022/04/13 08:27:13;;;;;;;9.17;4.63;;;14.20;99.90;;;;;;5058507;28;20437;-81
2022/04/13 08:29:58;;;;;;;10.90;5.33;;;14.30;99.90;;;;;;5055302;28;20528;-82
2022/04/13 08:32:43;;;;;;;5.47;4.87;;;14.40;99.90;;;;;;5070798;28;20488;-82
2022/04/13 08:35:27;;;;;;;8.87;5.17;;;14.20;99.90;;;;;;5089366;28;20432;-79
2022/04/13 08:38:12;;;;;;;12.47;5.17;;;14.60;99.90;;;;;;5072621;28;20427;-79
2022/04/13 08:41:00;;;;;;;6.00;3.67;;;14.70;99.90;;;;;;5066449;28;20444;-79
2022/04/13 08:43:51;;;;;;;7.40;4.37;;;14.60;99.90;;;;;;5068688;28;20533;-80
2022/04/13 08:46:39;;;;;;;14.00;7.47;;;14.60;99.90;;;;;;5041804;28;20434;-81
2022/04/13 08:49:24;;;;;;;4.57;3.30;;;14.70;99.90;;;;;;5028839;28;20431;-81
2022/04/13 08:52:09;;;;;;;9.63;4.90;;;14.80;99.90;;;;;;5014528;28;20474;-81
2022/04/13 08:55:03;;;;;;;8.80;5.37;;;15.00;99.90;;;;;;5030198;28;20449;-80
2022/04/13 08:57:50;;;;;;;6.23;5.00;;;15.20;99.90;;;;;;5028737;28;20426;-80
2022/04/13 09:00:40;;;;;;;6.37;4.47;;;15.50;99.90;;;;;;5029083;28;20977;-80
2022/04/13 09:03:42;;;;;;;14.00;9.00;;;15.60;99.90;;;;;;5029987;28;20461;-80
2022/04/13 09:06:28;;;;;;;8.07;4.03;;;15.70;99.90;;;;;;5031971;28;20469;-82
2022/04/13 09:09:29;;;;;;;5.80;3.90;;;15.90;99.90;;;;;;5012446;28;20419;-80
2022/04/13 09:12:14;;;;;;;5.13;3.30;;;16.10;99.90;;;;;;4996324;28;20541;-80
2022/04/13 09:15:01;;;;;;;6.77;5.33;;;16.20;99.90;;;;;;5027266;28;20454;-80
2022/04/13 09:17:46;;;;;;;13.13;5.00;;;16.20;99.90;;;;;;5064115;28;20486;-80
2022/04/13 09:20:30;;;;;;;6.93;4.67;;;16.30;99.20;;;;;;5072597;28;20554;-81
2022/04/13 09:23:16;;;;;;;7.33;4.13;;;16.50;99.20;;;;;;5058313;28;20520;-80
2022/04/13 09:26:02;;;;;;;14.97;5.50;;;16.90;96.90;;;;;;5074107;28;20415;-80
2022/04/13 09:28:46;;;;;;;5.60;4.43;;;16.90;94.80;;;;;;5070866;28;20431;-81
2022/04/13 09:31:31;;;;;;;4.57;4.17;;;16.80;95.10;;;;;;5076060;28;20463;-80
2022/04/13 09:34:16;;;;;;;5.40;3.83;;;17.20;95.30;;;;;;5076882;28;20444;-80
2022/04/13 09:37:01;;;;;;;8.00;4.70;;;17.00;94.20;;;;;;5068675;28;20577;-81
2022/04/13 09:39:46;;;;;;;5.77;3.97;;;17.10;92.70;;;;;;5058627;28;20429;-81
2022/04/13 09:42:31;;;;;;;8.77;3.10;;;17.10;92.40;;;;;;5046634;28;20453;-81
2022/04/13 09:45:16;;;;;;;6.90;4.37;;;17.30;92.40;;;;;;5070504;28;20462;-81
2022/04/13 09:48:04;;;;;;;8.00;4.57;;;17.40;92.10;;;;;;5070972;28;20457;-80
2022/04/13 09:50:50;;;;;;;5.43;4.00;;;17.50;90.90;;;;;;5055424;28;20457;-80
2022/04/13 09:53:42;;;;;;;6.20;4.03;;;17.50;91.20;;;;;;5054410;28;20436;-81
2022/04/13 09:56:27;;;;;;;6.93;3.43;;;17.80;90.60;;;;;;5061506;28;20933;-80
2022/04/13 09:59:23;;;;;;;5.95;3.97;;;17.90;90.70;;;;;;5065280;28;20458;-82
2022/04/13 10:02:09;;;;;;;8.53;3.87;;;18.00;91.20;;;;;;5061373;28;20591;-80
2022/04/13 10:04:54;;;;;;;5.00;4.50;;;17.90;90.20;;;;;;5058845;28;20510;-80
2022/04/13 10:07:38;;;;;;;5.13;4.10;;;18.20;87.90;;;;;;5057479;28;20478;-81
2022/04/13 10:10:24;;;;;;;6.53;4.33;;;18.40;87.80;;;;;;5084429;28;20484;-80
2022/04/13 10:13:10;;;;;;;5.73;4.47;;;18.40;85.30;;;;;;5074339;28;20546;-81
2022/04/13 10:15:58;;;;;;;5.90;4.33;;;18.90;85.70;;;;;;5005942;28;20495;-81
2022/04/13 10:18:57;;;;;;;4.60;3.80;;;18.80;83.20;;;;;;4986107;28;20522;-81
2022/04/13 10:21:47;;;;;;;7.83;4.70;;;19.30;83.20;;;;;;5007799;28;20427;-80
2022/04/13 10:24:34;;;;;;;8.13;3.70;;;19.60;81.00;;;;;;5014553;28;20427;-81
2022/04/13 10:27:20;;;;;;;5.10;4.27;;;19.50;80.90;;;;;;5013710;28;20490;-80
2022/04/13 10:30:07;;;;;;;7.27;4.63;;;19.50;79.60;;;;;;5013250;28;20602;-78
2022/04/13 10:33:09;;;;;;;19.00;4.47;;;19.70;80.20;;;;;;5000750;28;20486;-81
2022/04/13 10:35:55;;;;;;;6.37;4.53;;;20.40;81.90;;;;;;5016929;28;20447;-77
2022/04/13 10:38:40;;;;;;;13.70;4.17;;;20.80;77.00;;;;;;5015861;28;20427;-80
2022/04/13 10:41:26;;;;;;;6.00;4.83;;;20.40;76.70;;;;;;4999497;28;20461;-77
2022/04/13 10:44:11;;;;;;;7.13;4.20;;;20.40;79.50;;;;;;5004922;28;20486;-79
2022/04/13 10:47:03;;;;;;;5.90;3.87;;;21.10;77.60;;;;;;5027683;28;20445;-79
2022/04/13 10:50:00;;;;;;;6.63;3.77;;;21.20;75.60;;;;;;4995683;28;20520;-80
2022/04/13 10:52:59;;;;;;;4.23;3.80;;;21.00;75.50;;;;;;5018208;28;20492;-81
2022/04/13 10:55:48;;;;;;;7.00;3.40;;;21.80;73.20;;;;;;4996557;28;20486;-80
2022/04/13 10:58:52;;;;;;;4.77;4.30;;;22.10;74.30;;;;;;5014839;28;20443;-80
2022/04/13 11:01:46;;;;;;;5.40;3.50;;;22.50;69.90;;;;;;4999494;28;20471;-80
2022/04/13 11:04:33;;;;;;;4.47;3.30;;;21.20;71.60;;;;;;5003103;28;20494;-81
2022/04/13 11:07:18;;;;;;;4.00;3.23;;;22.50;72.20;;;;;;4991889;28;20438;-81
2022/04/13 11:10:07;;;;;;;5.80;4.27;;;22.70;70.00;;;;;;4995335;28;20771;-82
2022/04/13 11:12:52;;;;;;;9.40;2.83;;;23.40;71.60;;;;;;5017812;28;20474;-80
2022/04/13 11:16:12;;;;;;;3.77;2.90;;;23.70;67.80;;;;;;5003136;28;20454;-81
2022/04/13 11:19:19;;;;;;;7.20;3.63;;;23.90;64.90;;;;;;5015743;28;20442;-80
2022/04/13 11:22:11;;;;;;;9.47;4.20;;;24.50;63.10;;;;;;5022978;28;20430;-82
2022/04/13 11:24:58;;;;;;;4.50;3.73;;;24.80;64.50;;;;;;5034668;28;20912;-81
2022/04/13 11:27:53;;;;;;;3.83;3.43;;;24.80;63.80;;;;;;5033508;28;20448;-80
2022/04/13 11:30:59;;;;;;;6.20;3.50;;;25.40;62.60;;;;;;5021880;28;20457;-81
2022/04/13 11:33:55;;;;;;;11.27;4.43;;;24.30;60.10;;;;;;5026050;28;20474;-82
2022/04/13 11:36:51;;;;;;;4.40;3.83;;;25.20;63.20;;;;;;5021990;28;20479;-81
2022/04/13 11:39:56;;;;;;;5.60;3.83;;;24.90;61.10;;;;;;5041949;28;20417;-82
2022/04/13 11:42:50;;;;;;;5.23;4.57;;;25.60;58.30;;;;;;5055245;28;20461;-80
2022/04/13 11:45:35;;;;;;;4.10;3.57;;;26.00;58.20;;;;;;5066843;28;20444;-82
2022/04/13 11:48:34;;;;;;;4.30;3.90;;;26.20;58.40;;;;;;5073573;28;20582;-80
2022/04/13 11:51:30;;;;;;;5.17;3.87;;;25.50;57.90;;;;;;5090175;28;20426;-80
2022/04/13 11:54:15;;;;;;;7.60;3.87;;;25.70;58.60;;;;;;5077464;28;20429;-82
2022/04/13 11:56:59;;;;;;;4.13;3.70;;;26.40;57.00;;;;;;5055173;28;20426;-82
2022/04/13 11:59:47;;;;;;;3.87;2.97;;;26.50;55.90;;;;;;5081590;28;20745;-81
2022/04/13 12:02:34;;;;;;;8.23;4.17;;;26.60;56.40;;;;;;5058822;28;20468;-81
2022/04/13 12:05:19;;;;;;;5.10;3.10;;;26.50;56.70;;;;;;5073751;28;20554;-83
2022/04/13 12:08:16;;;;;;;5.20;3.20;;;26.10;55.80;;;;;;5079270;28;20471;-81
2022/04/13 12:11:21;;;;;;;3.47;3.17;;;26.00;56.80;;;;;;5076330;28;20464;-80
2022/04/13 12:14:08;;;;;;;4.23;3.87;;;26.30;56.70;;;;;;5069512;28;20435;-81
2022/04/13 12:16:55;;;;;;;3.80;3.40;;;26.70;57.00;;;;;;5056344;28;20582;-82
2022/04/13 12:19:42;;;;;;;6.03;3.90;;;26.20;57.60;;;;;;5060168;28;20420;-82
2022/04/13 12:22:26;;;;;;;6.33;3.10;;;26.10;56.80;;;;;;5052758;28;20450;-81
2022/04/13 12:25:14;;;;;;;5.07;3.80;;;26.40;56.40;;;;;;5070465;28;20512;-81
2022/04/13 12:28:04;;;;;;;4.83;3.87;;;26.00;58.00;;;;;;5076977;28;20497;-81
2022/04/13 12:30:57;;;;;;;6.82;3.53;;;26.20;57.00;;;;;;5063025;28;20456;-82
2022/04/13 12:33:42;;;;;;;12.03;3.70;;;25.50;58.40;;;;;;5059837;28;20201;-81
2022/04/13 12:36:26;;;;;;;4.40;3.60;;;25.50;58.70;;;;;;5046686;28;20797;-81
2022/04/13 12:39:12;;;;;;;4.00;3.60;;;26.50;56.30;;;;;;5066158;28;20559;-81
2022/04/13 12:41:58;;;;;;;4.07;3.60;;;26.40;55.40;;;;;;5067601;28;20193;-80
2022/04/13 12:44:46;;;;;;;4.80;3.50;;;25.90;58.10;;;;;;5075602;28;20432;-81
2022/04/13 12:47:31;;;;;;;4.30;3.37;;;26.90;57.30;;;;;;5077691;28;20460;-80
2022/04/13 12:50:16;;;;;;;3.93;3.63;;;27.00;56.10;;;;;;5075357;28;20439;-82
2022/04/13 12:53:00;;;;;;;5.30;3.27;;;27.00;56.00;;;;;;5060015;28;20798;-81
2022/04/13 12:55:56;;;;;;;4.77;2.90;;;27.00;55.80;;;;;;5070241;28;20499;-83
2022/04/13 12:58:42;;;;;;;5.47;3.10;;;26.80;56.50;;;;;;5075933;28;20503;-82
2022/04/13 13:01:45;;;;;;;4.67;4.27;;;27.00;56.30;;;;;;5066275;28;20456;-82
2022/04/13 13:04:40;;;;;;;4.33;3.43;;;27.10;57.00;;;;;;5067111;28;20436;-82
2022/04/13 13:07:30;;;;;;;4.37;3.77;;;26.70;56.00;;;;;;5074147;28;20451;-81
2022/04/13 13:10:14;;;;;;;7.43;3.60;;;26.90;55.50;;;;;;5080118;28;20976;-81
2022/04/13 13:13:17;;;;;;;21.43;5.27;;;26.60;55.40;;;;;;5073628;28;20546;-82
2022/04/13 13:16:02;;;;;;;3.70;3.40;;;26.20;57.10;;;;;;5064388;28;20436;-82
2022/04/13 13:18:47;;;;;;;3.83;3.50;;;26.50;56.60;;;;;;5002056;28;20518;-81
2022/04/13 13:21:32;;;;;;;4.17;3.10;;;26.40;56.40;;;;;;5022453;28;20406;-82
2022/04/13 13:24:29;;;;;;;3.80;3.50;;;26.30;56.70;;;;;;5008067;28;20498;-82
2022/04/13 13:27:15;;;;;;;7.13;3.37;;;26.70;56.20;;;;;;5032884;28;20438;-82
2022/04/13 13:30:09;;;;;;;5.33;3.27;;;26.90;56.50;;;;;;5023089;28;20478;-82
2022/04/13 13:32:55;;;;;;;4.27;3.47;;;26.60;56.20;;;;;;5018377;28;20430;-83
2022/04/13 13:35:39;;;;;;;4.00;3.00;;;27.00;56.10;;;;;;5024263;28;20433;-83
2022/04/13 13:38:25;;;;;;;4.30;3.50;;;26.90;54.40;;;;;;5007749;28;20427;-82
2022/04/13 13:41:12;;;;;;;4.80;2.87;;;26.70;53.20;;;;;;5030657;28;20549;-84
2022/04/13 13:43:57;;;;;;;12.57;3.23;;;26.10;54.40;;;;;;5021602;28;20467;-82
2022/04/13 13:46:44;;;;;;;5.00;2.87;;;25.90;55.70;;;;;;5009182;28;20442;-83
2022/04/13 13:49:29;;;;;;;3.70;3.37;;;25.70;55.00;;;;;;5033031;28;20440;-83
2022/04/13 13:52:15;;;;;;;5.30;3.50;;;25.70;55.20;;;;;;5050574;28;20464;-84
2022/04/13 13:54:59;;;;;;;4.10;3.30;;;25.90;55.40;;;;;;5062325;28;20416;-83
2022/04/13 13:57:43;;;;;;;3.07;2.87;;;26.60;55.10;;;;;;5067730;28;20202;-85
2022/04/13 14:00:34;;;;;;;3.67;3.20;;;26.30;54.80;;;;;;5065484;28;20526;-80
2022/04/13 14:03:19;;;;;;;5.43;3.10;;;26.40;54.70;;;;;;5054306;28;20503;-81
2022/04/13 14:06:04;;;;;;;4.57;2.87;;;26.70;54.80;;;;;;5041804;28;20472;-80
2022/04/13 14:08:50;;;;;;;4.20;3.33;;;27.10;53.70;;;;;;5055022;28;20563;-81
2022/04/13 14:11:35;;;;;;;5.60;2.87;;;27.00;53.90;;;;;;5038804;28;20465;-80
2022/04/13 14:14:20;;;;;;;3.83;3.53;;;26.20;52.20;;;;;;5036482;28;20440;-81
2022/04/13 14:17:09;;;;;;;5.40;3.10;;;25.50;52.70;;;;;;5044677;28;20779;-78
2022/04/13 14:19:53;;;;;;;5.10;3.20;;;26.10;53.60;;;;;;5049336;28;20481;-78
2022/04/13 14:22:40;;;;;;;2.97;2.77;;;26.40;54.30;;;;;;5065029;28;20517;-79
2022/04/13 14:25:24;;;;;;;12.33;3.10;;;26.70;54.00;;;;;;5086535;28;20507;-80
2022/04/13 14:28:09;;;;;;;7.07;3.80;;;26.70;52.10;;;;;;5070359;28;20429;-81
2022/04/13 14:30:54;;;;;;;3.30;2.70;;;26.60;52.70;;;;;;5084019;28;20513;-78